メインページ
METAR-TAF:

METAR-TAF

空港 :

レシフェ/グアララペス・ジルベルト・フレイレ国際空港

レシフェ, ペルナンブーコ州, ブラジル

緯度: 08-08S, 経度: 034-55W, 海抜: 19m

現時点の気象観測

当レポートは55分前の11:00(UTC)に作成
南東の風 11kt
気温 28°C
湿度 70%
気圧 1015 hPa
視程10km以上
高度2500ftの千切れ雲あり

METAR: SBRF 221100Z 14011KT 9999 BKN025 28/22 Q1015

時間: 08:55 (11:55 UTC)

予報

当レポートは1時間55分前の10:00(UTC)に作成
予報は22日の 12時(UTC)から 23日の 12時(UTC)まで有効
の風 9kt
視程10km以上
高度2300ftの雲は散在している
確率 30%
22日の 13時(UTC)から 22日の 15時(UTC)まで
視程: 8000m
高度1600ftの千切れ雲あり
にわか雨

TAF: SBRF 221000Z 2212/2312 10009KT 9999 SCT023 TX30/2215Z TN25/2306Z PROB30 2213/2215 8000 SHRA BKN016 RMK PCN

4,000以上の空港の気象観測と天気予報(METAR報とTAF報)

利用可能な観測所は地図上に黄色い丸と赤い丸で示す。

丸の上にカーソルを重ねると観測所名を参照できる。

次にクリックすると気象観測と天気予報を参照できる。

マップの切り替え:黒色「×」印の緑ボタンをクリックして拡大、「-」印の緑ボタンをクリックして縮小、緑色の三角印をクリックして隣りの地図に切り替え


METAR-TAF: